sensor_id;sensor_type;location;lat;lon;timestamp;temperature;humidity
69715;HTU21D;56981;53.532;49.398;2022-10-29T00:02:04;3.94;89.99
69715;HTU21D;56981;53.532;49.398;2022-10-29T00:04:30;3.87;89.20
69715;HTU21D;56981;53.532;49.398;2022-10-29T00:06:57;3.85;88.71
69715;HTU21D;56981;53.532;49.398;2022-10-29T00:09:23;3.83;88.70
69715;HTU21D;56981;53.532;49.398;2022-10-29T00:11:49;3.84;89.11
69715;HTU21D;56981;53.532;49.398;2022-10-29T00:14:15;3.77;89.21
69715;HTU21D;56981;53.532;49.398;2022-10-29T00:16:42;3.75;89.83
69715;HTU21D;56981;53.532;49.398;2022-10-29T00:19:08;3.82;89.25
69715;HTU21D;56981;53.532;49.398;2022-10-29T00:21:34;3.82;88.78
69715;HTU21D;56981;53.532;49.398;2022-10-29T00:24:00;3.80;89.31
69715;HTU21D;56981;53.532;49.398;2022-10-29T00:26:28;3.78;89.83
69715;HTU21D;56981;53.532;49.398;2022-10-29T00:28:55;3.76;89.64
69715;HTU21D;56981;53.532;49.398;2022-10-29T00:31:22;3.76;90.13
69715;HTU21D;56981;53.532;49.398;2022-10-29T00:33:50;3.80;89.63
69715;HTU21D;56981;53.532;49.398;2022-10-29T00:36:19;3.73;89.06
69715;HTU21D;56981;53.532;49.398;2022-10-29T00:38:46;3.76;89.76
69715;HTU21D;56981;53.532;49.398;2022-10-29T00:41:19;3.78;89.73
69715;HTU21D;56981;53.532;49.398;2022-10-29T00:44:26;3.73;89.15
69715;HTU21D;56981;53.532;49.398;2022-10-29T00:46:36;3.71;90.02
69715;HTU21D;56981;53.532;49.398;2022-10-29T00:49:02;3.60;90.19
69715;HTU21D;56981;53.532;49.398;2022-10-29T00:51:29;3.58;90.16
69715;HTU21D;56981;53.532;49.398;2022-10-29T00:54:01;3.61;89.78
69715;HTU21D;56981;53.532;49.398;2022-10-29T00:56:30;3.60;89.83
69715;HTU21D;56981;53.532;49.398;2022-10-29T00:58:58;3.57;90.35
69715;HTU21D;56981;53.532;49.398;2022-10-29T01:01:25;3.50;89.83
69715;HTU21D;56981;53.532;49.398;2022-10-29T01:03:51;3.61;89.99
69715;HTU21D;56981;53.532;49.398;2022-10-29T01:06:18;3.61;89.87
69715;HTU21D;56981;53.532;49.398;2022-10-29T01:08:45;3.58;90.21
69715;HTU21D;56981;53.532;49.398;2022-10-29T01:22:00;3.69;90.02
69715;HTU21D;56981;53.532;49.398;2022-10-29T01:27:46;3.61;90.63
69715;HTU21D;56981;53.532;49.398;2022-10-29T01:34:14;3.60;90.47
69715;HTU21D;56981;53.532;49.398;2022-10-29T01:36:41;3.62;90.29
69715;HTU21D;56981;53.532;49.398;2022-10-29T01:44:36;3.58;90.20
69715;HTU21D;56981;53.532;49.398;2022-10-29T01:47:04;3.67;90.92
69715;HTU21D;56981;53.532;49.398;2022-10-29T01:49:37;3.61;90.37
69715;HTU21D;56981;53.532;49.398;2022-10-29T01:52:06;3.69;90.63
69715;HTU21D;56981;53.532;49.398;2022-10-29T01:54:33;3.70;91.14
69715;HTU21D;56981;53.532;49.398;2022-10-29T01:57:27;3.77;91.25
69715;HTU21D;56981;53.532;49.398;2022-10-29T02:00:03;3.77;91.03
69715;HTU21D;56981;53.532;49.398;2022-10-29T02:05:22;3.75;90.66
69715;HTU21D;56981;53.532;49.398;2022-10-29T02:07:56;3.75;90.74
69715;HTU21D;56981;53.532;49.398;2022-10-29T02:10:32;3.65;90.44
69715;HTU21D;56981;53.532;49.398;2022-10-29T02:13:00;3.73;91.27
69715;HTU21D;56981;53.532;49.398;2022-10-29T02:15:39;3.71;90.41
69715;HTU21D;56981;53.532;49.398;2022-10-29T02:18:07;3.69;90.82
69715;HTU21D;56981;53.532;49.398;2022-10-29T02:20:34;3.64;90.59
69715;HTU21D;56981;53.532;49.398;2022-10-29T02:23:00;3.58;90.66
69715;HTU21D;56981;53.532;49.398;2022-10-29T02:25:27;3.57;90.49
69715;HTU21D;56981;53.532;49.398;2022-10-29T02:27:54;3.52;90.06
69715;HTU21D;56981;53.532;49.398;2022-10-29T02:30:20;3.49;90.90
69715;HTU21D;56981;53.532;49.398;2022-10-29T02:32:46;3.50;91.60
69715;HTU21D;56981;53.532;49.398;2022-10-29T02:35:12;3.59;92.11
69715;HTU21D;56981;53.532;49.398;2022-10-29T02:37:38;3.60;91.32
69715;HTU21D;56981;53.532;49.398;2022-10-29T02:40:04;3.61;90.70
69715;HTU21D;56981;53.532;49.398;2022-10-29T02:42:30;3.55;90.70
69715;HTU21D;56981;53.532;49.398;2022-10-29T02:44:56;3.55;91.13
69715;HTU21D;56981;53.532;49.398;2022-10-29T02:47:23;3.52;91.01
69715;HTU21D;56981;53.532;49.398;2022-10-29T02:49:49;3.55;90.93
69715;HTU21D;56981;53.532;49.398;2022-10-29T02:52:15;3.62;90.82
69715;HTU21D;56981;53.532;49.398;2022-10-29T02:54:41;3.57;89.87
69715;HTU21D;56981;53.532;49.398;2022-10-29T02:57:07;3.55;90.34
69715;HTU21D;56981;53.532;49.398;2022-10-29T02:59:33;3.49;90.24
69715;HTU21D;56981;53.532;49.398;2022-10-29T03:01:59;3.47;90.76
69715;HTU21D;56981;53.532;49.398;2022-10-29T03:04:26;3.53;91.10
69715;HTU21D;56981;53.532;49.398;2022-10-29T03:06:52;3.57;90.18
69715;HTU21D;56981;53.532;49.398;2022-10-29T03:09:18;3.60;90.22
69715;HTU21D;56981;53.532;49.398;2022-10-29T03:11:44;3.60;90.12
69715;HTU21D;56981;53.532;49.398;2022-10-29T03:14:10;3.56;90.68
69715;HTU21D;56981;53.532;49.398;2022-10-29T03:16:36;3.52;90.28
69715;HTU21D;56981;53.532;49.398;2022-10-29T03:19:02;3.56;90.76
69715;HTU21D;56981;53.532;49.398;2022-10-29T03:21:28;3.53;90.48
69715;HTU21D;56981;53.532;49.398;2022-10-29T03:23:55;3.42;90.03
69715;HTU21D;56981;53.532;49.398;2022-10-29T03:26:21;3.40;89.75
69715;HTU21D;56981;53.532;49.398;2022-10-29T03:28:47;3.41;90.07
69715;HTU21D;56981;53.532;49.398;2022-10-29T03:31:13;3.44;89.67
69715;HTU21D;56981;53.532;49.398;2022-10-29T03:33:39;3.41;90.37
69715;HTU21D;56981;53.532;49.398;2022-10-29T03:36:06;3.39;90.29
69715;HTU21D;56981;53.532;49.398;2022-10-29T03:38:32;3.32;90.06
69715;HTU21D;56981;53.532;49.398;2022-10-29T03:40:59;3.34;90.07
69715;HTU21D;56981;53.532;49.398;2022-10-29T03:43:25;3.35;90.32
69715;HTU21D;56981;53.532;49.398;2022-10-29T03:45:53;3.36;89.95
69715;HTU21D;56981;53.532;49.398;2022-10-29T03:48:20;3.39;90.48
69715;HTU21D;56981;53.532;49.398;2022-10-29T03:50:54;3.40;90.06
69715;HTU21D;56981;53.532;49.398;2022-10-29T03:53:22;3.42;90.59
69715;HTU21D;56981;53.532;49.398;2022-10-29T03:55:49;3.38;90.41
69715;HTU21D;56981;53.532;49.398;2022-10-29T03:58:16;3.42;90.79
69715;HTU21D;56981;53.532;49.398;2022-10-29T04:00:42;3.43;90.48
69715;HTU21D;56981;53.532;49.398;2022-10-29T04:03:08;3.46;90.16
69715;HTU21D;56981;53.532;49.398;2022-10-29T04:05:34;3.55;90.60
69715;HTU21D;56981;53.532;49.398;2022-10-29T04:08:00;3.56;89.66
69715;HTU21D;56981;53.532;49.398;2022-10-29T04:10:26;3.62;89.41
69715;HTU21D;56981;53.532;49.398;2022-10-29T04:12:52;3.64;89.65
69715;HTU21D;56981;53.532;49.398;2022-10-29T04:15:18;3.64;90.35
69715;HTU21D;56981;53.532;49.398;2022-10-29T04:17:44;3.63;88.73
69715;HTU21D;56981;53.532;49.398;2022-10-29T04:20:11;3.65;89.70
69715;HTU21D;56981;53.532;49.398;2022-10-29T04:22:37;3.72;89.31
69715;HTU21D;56981;53.532;49.398;2022-10-29T04:25:03;3.63;88.90
69715;HTU21D;56981;53.532;49.398;2022-10-29T04:27:29;3.60;90.17
69715;HTU21D;56981;53.532;49.398;2022-10-29T04:29:57;3.58;89.14
69715;HTU21D;56981;53.532;49.398;2022-10-29T04:32:23;3.61;89.93
69715;HTU21D;56981;53.532;49.398;2022-10-29T04:34:49;3.64;89.14
69715;HTU21D;56981;53.532;49.398;2022-10-29T04:37:15;3.61;89.60
69715;HTU21D;56981;53.532;49.398;2022-10-29T04:39:41;3.65;89.73
69715;HTU21D;56981;53.532;49.398;2022-10-29T04:42:07;3.68;90.15
69715;HTU21D;56981;53.532;49.398;2022-10-29T04:44:33;3.72;89.61
69715;HTU21D;56981;53.532;49.398;2022-10-29T04:46:59;3.74;90.28
69715;HTU21D;56981;53.532;49.398;2022-10-29T04:49:25;3.80;89.60
69715;HTU21D;56981;53.532;49.398;2022-10-29T04:51:51;3.84;89.53
69715;HTU21D;56981;53.532;49.398;2022-10-29T04:54:18;3.74;88.98
69715;HTU21D;56981;53.532;49.398;2022-10-29T04:56:44;3.74;89.96
69715;HTU21D;56981;53.532;49.398;2022-10-29T04:59:10;3.80;89.19
69715;HTU21D;56981;53.532;49.398;2022-10-29T05:01:36;3.83;89.31
69715;HTU21D;56981;53.532;49.398;2022-10-29T05:04:02;3.77;89.43
69715;HTU21D;56981;53.532;49.398;2022-10-29T05:06:28;3.75;89.85
69715;HTU21D;56981;53.532;49.398;2022-10-29T05:08:54;3.82;89.90
69715;HTU21D;56981;53.532;49.398;2022-10-29T05:11:20;3.90;89.99
69715;HTU21D;56981;53.532;49.398;2022-10-29T05:13:46;3.98;89.69
69715;HTU21D;56981;53.532;49.398;2022-10-29T05:16:12;4.08;89.19
69715;HTU21D;56981;53.532;49.398;2022-10-29T05:18:38;4.10;88.66
69715;HTU21D;56981;53.532;49.398;2022-10-29T05:21:04;4.15;88.51
69715;HTU21D;56981;53.532;49.398;2022-10-29T05:23:31;4.18;88.19
69715;HTU21D;56981;53.532;49.398;2022-10-29T05:25:57;4.23;88.05
69715;HTU21D;56981;53.532;49.398;2022-10-29T05:28:23;4.27;87.45
69715;HTU21D;56981;53.532;49.398;2022-10-29T05:30:51;4.29;87.06
69715;HTU21D;56981;53.532;49.398;2022-10-29T05:33:20;4.28;87.48
69715;HTU21D;56981;53.532;49.398;2022-10-29T05:35:46;4.23;87.65
69715;HTU21D;56981;53.532;49.398;2022-10-29T05:38:13;4.28;87.42
69715;HTU21D;56981;53.532;49.398;2022-10-29T05:40:39;4.33;87.87
69715;HTU21D;56981;53.532;49.398;2022-10-29T05:43:07;4.34;87.05
69715;HTU21D;56981;53.532;49.398;2022-10-29T05:45:33;4.35;87.99
69715;HTU21D;56981;53.532;49.398;2022-10-29T05:48:01;4.41;87.06
69715;HTU21D;56981;53.532;49.398;2022-10-29T05:50:28;4.42;87.00
69715;HTU21D;56981;53.532;49.398;2022-10-29T05:52:58;4.37;85.77
69715;HTU21D;56981;53.532;49.398;2022-10-29T05:55:26;4.36;87.32
69715;HTU21D;56981;53.532;49.398;2022-10-29T05:57:56;4.34;86.41
69715;HTU21D;56981;53.532;49.398;2022-10-29T06:00:26;4.35;87.22
69715;HTU21D;56981;53.532;49.398;2022-10-29T06:02:52;4.31;86.95
69715;HTU21D;56981;53.532;49.398;2022-10-29T06:05:19;4.28;86.58
69715;HTU21D;56981;53.532;49.398;2022-10-29T06:07:45;4.27;86.93
69715;HTU21D;56981;53.532;49.398;2022-10-29T06:10:17;4.19;88.19
69715;HTU21D;56981;53.532;49.398;2022-10-29T06:12:44;4.21;87.68
69715;HTU21D;56981;53.532;49.398;2022-10-29T06:15:10;4.24;87.70
69715;HTU21D;56981;53.532;49.398;2022-10-29T06:17:40;4.28;88.27
69715;HTU21D;56981;53.532;49.398;2022-10-29T06:20:11;4.33;87.80
69715;HTU21D;56981;53.532;49.398;2022-10-29T06:22:37;4.26;87.83
69715;HTU21D;56981;53.532;49.398;2022-10-29T06:25:11;4.27;88.39
69715;HTU21D;56981;53.532;49.398;2022-10-29T06:27:37;4.28;88.41
69715;HTU21D;56981;53.532;49.398;2022-10-29T06:30:04;4.21;88.65
69715;HTU21D;56981;53.532;49.398;2022-10-29T06:32:31;4.17;88.74
69715;HTU21D;56981;53.532;49.398;2022-10-29T06:34:57;4.13;89.11
69715;HTU21D;56981;53.532;49.398;2022-10-29T06:37:23;4.09;89.46
69715;HTU21D;56981;53.532;49.398;2022-10-29T06:39:49;4.15;88.62
69715;HTU21D;56981;53.532;49.398;2022-10-29T06:42:15;4.22;88.60
69715;HTU21D;56981;53.532;49.398;2022-10-29T06:44:42;4.23;88.73
69715;HTU21D;56981;53.532;49.398;2022-10-29T06:47:08;4.32;88.38
69715;HTU21D;56981;53.532;49.398;2022-10-29T06:49:37;4.27;88.25
69715;HTU21D;56981;53.532;49.398;2022-10-29T06:52:06;4.27;89.32
69715;HTU21D;56981;53.532;49.398;2022-10-29T06:54:32;4.34;88.37
69715;HTU21D;56981;53.532;49.398;2022-10-29T06:57:04;4.34;87.98
69715;HTU21D;56981;53.532;49.398;2022-10-29T06:59:30;4.33;87.96
69715;HTU21D;56981;53.532;49.398;2022-10-29T07:01:56;4.30;88.64
69715;HTU21D;56981;53.532;49.398;2022-10-29T07:04:22;4.44;88.19
69715;HTU21D;56981;53.532;49.398;2022-10-29T07:06:48;4.37;88.43
69715;HTU21D;56981;53.532;49.398;2022-10-29T07:09:15;4.36;88.48
69715;HTU21D;56981;53.532;49.398;2022-10-29T07:11:41;4.34;88.70
69715;HTU21D;56981;53.532;49.398;2022-10-29T07:14:08;4.41;88.15
69715;HTU21D;56981;53.532;49.398;2022-10-29T07:16:35;4.38;88.41
69715;HTU21D;56981;53.532;49.398;2022-10-29T07:19:02;4.41;88.74
69715;HTU21D;56981;53.532;49.398;2022-10-29T07:21:29;4.53;88.45
69715;HTU21D;56981;53.532;49.398;2022-10-29T07:23:59;4.63;88.99
69715;HTU21D;56981;53.532;49.398;2022-10-29T07:26:25;4.69;88.65
69715;HTU21D;56981;53.532;49.398;2022-10-29T07:28:54;4.66;87.73
69715;HTU21D;56981;53.532;49.398;2022-10-29T07:31:21;4.72;88.18
69715;HTU21D;56981;53.532;49.398;2022-10-29T07:33:48;4.75;87.92
69715;HTU21D;56981;53.532;49.398;2022-10-29T07:36:14;4.78;87.86
69715;HTU21D;56981;53.532;49.398;2022-10-29T07:38:40;4.79;87.68
69715;HTU21D;56981;53.532;49.398;2022-10-29T07:41:06;4.76;88.03
69715;HTU21D;56981;53.532;49.398;2022-10-29T07:43:32;4.79;87.22
69715;HTU21D;56981;53.532;49.398;2022-10-29T07:45:58;4.71;87.13
69715;HTU21D;56981;53.532;49.398;2022-10-29T07:48:24;4.68;87.57
69715;HTU21D;56981;53.532;49.398;2022-10-29T07:50:50;4.77;87.67
69715;HTU21D;56981;53.532;49.398;2022-10-29T07:53:16;4.71;87.11
69715;HTU21D;56981;53.532;49.398;2022-10-29T07:55:43;4.72;88.64
69715;HTU21D;56981;53.532;49.398;2022-10-29T07:58:10;4.75;87.62
69715;HTU21D;56981;53.532;49.398;2022-10-29T08:00:38;4.83;87.41
69715;HTU21D;56981;53.532;49.398;2022-10-29T08:03:05;4.92;87.42
69715;HTU21D;56981;53.532;49.398;2022-10-29T08:05:31;4.92;86.31
69715;HTU21D;56981;53.532;49.398;2022-10-29T08:07:58;4.90;86.22
69715;HTU21D;56981;53.532;49.398;2022-10-29T08:10:24;5.00;85.98
69715;HTU21D;56981;53.532;49.398;2022-10-29T08:12:52;5.03;86.86
69715;HTU21D;56981;53.532;49.398;2022-10-29T08:15:19;5.10;86.34
69715;HTU21D;56981;53.532;49.398;2022-10-29T08:17:45;5.21;86.35
69715;HTU21D;56981;53.532;49.398;2022-10-29T08:20:12;5.20;85.45
69715;HTU21D;56981;53.532;49.398;2022-10-29T08:22:39;5.21;86.06
69715;HTU21D;56981;53.532;49.398;2022-10-29T08:25:05;5.20;86.32
69715;HTU21D;56981;53.532;49.398;2022-10-29T08:27:31;5.23;86.34
69715;HTU21D;56981;53.532;49.398;2022-10-29T08:29:57;5.23;85.62
69715;HTU21D;56981;53.532;49.398;2022-10-29T08:32:24;5.24;85.88
69715;HTU21D;56981;53.532;49.398;2022-10-29T08:34:50;5.31;86.06
69715;HTU21D;56981;53.532;49.398;2022-10-29T08:37:16;5.26;85.57
69715;HTU21D;56981;53.532;49.398;2022-10-29T08:39:42;5.21;86.12
69715;HTU21D;56981;53.532;49.398;2022-10-29T08:42:30;5.25;86.47
69715;HTU21D;56981;53.532;49.398;2022-10-29T08:45:18;5.32;86.64
69715;HTU21D;56981;53.532;49.398;2022-10-29T08:50:40;5.28;85.84
69715;HTU21D;56981;53.532;49.398;2022-10-29T08:53:41;5.24;85.55
69715;HTU21D;56981;53.532;49.398;2022-10-29T08:56:15;5.24;85.86
69715;HTU21D;56981;53.532;49.398;2022-10-29T08:59:04;5.36;86.33
69715;HTU21D;56981;53.532;49.398;2022-10-29T09:01:35;5.39;86.09
69715;HTU21D;56981;53.532;49.398;2022-10-29T09:04:02;5.38;85.57
69715;HTU21D;56981;53.532;49.398;2022-10-29T09:06:43;5.49;85.22
69715;HTU21D;56981;53.532;49.398;2022-10-29T09:09:43;5.49;84.43
69715;HTU21D;56981;53.532;49.398;2022-10-29T09:18:03;5.47;85.16
69715;HTU21D;56981;53.532;49.398;2022-10-29T09:23:24;5.59;84.91
69715;HTU21D;56981;53.532;49.398;2022-10-29T09:26:03;5.65;84.93
69715;HTU21D;56981;53.532;49.398;2022-10-29T09:29:00;5.65;84.42
69715;HTU21D;56981;53.532;49.398;2022-10-29T09:31:41;5.66;84.97
69715;HTU21D;56981;53.532;49.398;2022-10-29T09:34:36;5.67;84.32
69715;HTU21D;56981;53.532;49.398;2022-10-29T09:36:59;5.59;84.27
69715;HTU21D;56981;53.532;49.398;2022-10-29T09:39:36;5.60;84.22
69715;HTU21D;56981;53.532;49.398;2022-10-29T09:42:11;5.61;85.00
69715;HTU21D;56981;53.532;49.398;2022-10-29T09:44:45;5.65;84.60
69715;HTU21D;56981;53.532;49.398;2022-10-29T09:47:37;5.72;85.04
69715;HTU21D;56981;53.532;49.398;2022-10-29T09:50:21;5.81;84.34
69715;HTU21D;56981;53.532;49.398;2022-10-29T09:52:51;5.84;83.82
69715;HTU21D;56981;53.532;49.398;2022-10-29T09:55:47;5.83;83.36
69715;HTU21D;56981;53.532;49.398;2022-10-29T09:58:24;5.85;83.65
69715;HTU21D;56981;53.532;49.398;2022-10-29T10:00:51;5.78;83.90
69715;HTU21D;56981;53.532;49.398;2022-10-29T10:03:40;5.84;82.68
69715;HTU21D;56981;53.532;49.398;2022-10-29T10:06:12;5.84;83.50
69715;HTU21D;56981;53.532;49.398;2022-10-29T10:11:20;5.99;83.35
69715;HTU21D;56981;53.532;49.398;2022-10-29T10:13:55;6.00;82.58
69715;HTU21D;56981;53.532;49.398;2022-10-29T10:16:27;5.89;83.55
69715;HTU21D;56981;53.532;49.398;2022-10-29T10:18:53;5.80;83.27
69715;HTU21D;56981;53.532;49.398;2022-10-29T10:21:27;5.75;83.61
69715;HTU21D;56981;53.532;49.398;2022-10-29T10:23:55;5.77;83.79
69715;HTU21D;56981;53.532;49.398;2022-10-29T10:26:28;5.85;83.83
69715;HTU21D;56981;53.532;49.398;2022-10-29T10:29:15;5.83;83.90
69715;HTU21D;56981;53.532;49.398;2022-10-29T10:31:46;5.86;84.08
69715;HTU21D;56981;53.532;49.398;2022-10-29T10:34:19;5.94;84.14
69715;HTU21D;56981;53.532;49.398;2022-10-29T10:37:01;5.94;82.87
69715;HTU21D;56981;53.532;49.398;2022-10-29T10:39:33;5.86;83.46
69715;HTU21D;56981;53.532;49.398;2022-10-29T10:42:06;5.95;83.05
69715;HTU21D;56981;53.532;49.398;2022-10-29T10:44:49;5.91;82.11
69715;HTU21D;56981;53.532;49.398;2022-10-29T10:47:27;5.87;81.32
69715;HTU21D;56981;53.532;49.398;2022-10-29T10:50:30;5.79;80.42
69715;HTU21D;56981;53.532;49.398;2022-10-29T10:52:56;5.71;81.72
69715;HTU21D;56981;53.532;49.398;2022-10-29T10:55:55;5.69;81.83
69715;HTU21D;56981;53.532;49.398;2022-10-29T10:58:41;5.66;82.78
69715;HTU21D;56981;53.532;49.398;2022-10-29T11:01:16;5.55;82.27
69715;HTU21D;56981;53.532;49.398;2022-10-29T11:03:47;5.56;83.59
69715;HTU21D;56981;53.532;49.398;2022-10-29T11:06:19;5.56;82.98
69715;HTU21D;56981;53.532;49.398;2022-10-29T11:11:38;5.63;82.93
69715;HTU21D;56981;53.532;49.398;2022-10-29T11:14:21;5.65;82.33
69715;HTU21D;56981;53.532;49.398;2022-10-29T11:16:52;5.65;83.39
69715;HTU21D;56981;53.532;49.398;2022-10-29T11:19:36;5.67;82.94
69715;HTU21D;56981;53.532;49.398;2022-10-29T11:22:31;5.68;81.97
69715;HTU21D;56981;53.532;49.398;2022-10-29T11:25:18;5.66;82.53
69715;HTU21D;56981;53.532;49.398;2022-10-29T11:27:52;5.65;83.13
69715;HTU21D;56981;53.532;49.398;2022-10-29T11:30:20;5.65;81.63
69715;HTU21D;56981;53.532;49.398;2022-10-29T11:33:11;5.65;81.87
69715;HTU21D;56981;53.532;49.398;2022-10-29T11:36:36;5.65;81.54
69715;HTU21D;56981;53.532;49.398;2022-10-29T11:38:48;5.68;81.27
69715;HTU21D;56981;53.532;49.398;2022-10-29T11:41:37;5.53;81.17
69715;HTU21D;56981;53.532;49.398;2022-10-29T11:44:16;5.43;81.38
69715;HTU21D;56981;53.532;49.398;2022-10-29T11:47:14;5.46;81.23
69715;HTU21D;56981;53.532;49.398;2022-10-29T11:52:28;5.53;81.91
69715;HTU21D;56981;53.532;49.398;2022-10-29T11:54:59;5.54;81.36
69715;HTU21D;56981;53.532;49.398;2022-10-29T12:05:37;5.33;82.62
69715;HTU21D;56981;53.532;49.398;2022-10-29T12:13:52;5.40;82.50
69715;HTU21D;56981;53.532;49.398;2022-10-29T12:16:38;5.38;81.49
69715;HTU21D;56981;53.532;49.398;2022-10-29T12:19:18;5.34;81.69
69715;HTU21D;56981;53.532;49.398;2022-10-29T12:30:14;5.25;81.13
69715;HTU21D;56981;53.532;49.398;2022-10-29T12:40:38;5.07;81.31
69715;HTU21D;56981;53.532;49.398;2022-10-29T12:43:35;5.06;82.01
69715;HTU21D;56981;53.532;49.398;2022-10-29T12:54:27;5.10;82.44
69715;HTU21D;56981;53.532;49.398;2022-10-29T12:57:22;5.02;81.41
69715;HTU21D;56981;53.532;49.398;2022-10-29T12:59:52;4.98;81.23
69715;HTU21D;56981;53.532;49.398;2022-10-29T13:02:27;4.95;82.11
69715;HTU21D;56981;53.532;49.398;2022-10-29T13:07:36;4.98;81.72
69715;HTU21D;56981;53.532;49.398;2022-10-29T13:15:57;4.91;82.20
69715;HTU21D;56981;53.532;49.398;2022-10-29T13:18:54;4.88;82.26
69715;HTU21D;56981;53.532;49.398;2022-10-29T13:22:08;4.88;82.97
69715;HTU21D;56981;53.532;49.398;2022-10-29T13:24:39;4.90;83.28
69715;HTU21D;56981;53.532;49.398;2022-10-29T13:32:38;4.88;83.39
69715;HTU21D;56981;53.532;49.398;2022-10-29T13:43:08;4.86;82.42
69715;HTU21D;56981;53.532;49.398;2022-10-29T13:45:36;4.88;82.67
69715;HTU21D;56981;53.532;49.398;2022-10-29T13:48:06;4.90;82.47
69715;HTU21D;56981;53.532;49.398;2022-10-29T13:50:40;4.86;82.32
69715;HTU21D;56981;53.532;49.398;2022-10-29T13:53:10;4.87;83.56
69715;HTU21D;56981;53.532;49.398;2022-10-29T13:55:39;4.83;81.87
69715;HTU21D;56981;53.532;49.398;2022-10-29T13:58:26;4.86;82.69
69715;HTU21D;56981;53.532;49.398;2022-10-29T14:00:54;4.83;83.05
69715;HTU21D;56981;53.532;49.398;2022-10-29T14:03:38;4.77;82.16
69715;HTU21D;56981;53.532;49.398;2022-10-29T14:06:15;4.69;82.44
69715;HTU21D;56981;53.532;49.398;2022-10-29T14:08:47;4.72;83.28
69715;HTU21D;56981;53.532;49.398;2022-10-29T14:11:29;4.75;83.87
69715;HTU21D;56981;53.532;49.398;2022-10-29T14:14:01;4.79;84.06
69715;HTU21D;56981;53.532;49.398;2022-10-29T14:16:31;4.77;82.61
69715;HTU21D;56981;53.532;49.398;2022-10-29T14:19:11;4.68;82.65
69715;HTU21D;56981;53.532;49.398;2022-10-29T14:21:39;4.65;82.12
69715;HTU21D;56981;53.532;49.398;2022-10-29T14:24:08;4.61;82.81
69715;HTU21D;56981;53.532;49.398;2022-10-29T14:26:36;4.57;83.39
69715;HTU21D;56981;53.532;49.398;2022-10-29T14:29:23;4.51;83.10
69715;HTU21D;56981;53.532;49.398;2022-10-29T14:32:19;4.50;83.35
69715;HTU21D;56981;53.532;49.398;2022-10-29T14:34:48;4.51;83.41
69715;HTU21D;56981;53.532;49.398;2022-10-29T14:37:25;4.46;83.58
69715;HTU21D;56981;53.532;49.398;2022-10-29T14:39:56;4.56;83.40
69715;HTU21D;56981;53.532;49.398;2022-10-29T14:42:36;4.56;83.13
69715;HTU21D;56981;53.532;49.398;2022-10-29T14:45:07;4.60;83.59
69715;HTU21D;56981;53.532;49.398;2022-10-29T14:47:41;4.63;83.58
69715;HTU21D;56981;53.532;49.398;2022-10-29T14:50:21;4.61;83.41
69715;HTU21D;56981;53.532;49.398;2022-10-29T14:53:16;4.65;83.97
69715;HTU21D;56981;53.532;49.398;2022-10-29T14:55:45;4.63;83.65
69715;HTU21D;56981;53.532;49.398;2022-10-29T14:58:25;4.59;83.44
69715;HTU21D;56981;53.532;49.398;2022-10-29T15:01:04;4.62;83.89
69715;HTU21D;56981;53.532;49.398;2022-10-29T15:03:33;4.68;83.75
69715;HTU21D;56981;53.532;49.398;2022-10-29T15:06:18;4.63;82.91
69715;HTU21D;56981;53.532;49.398;2022-10-29T15:08:53;4.60;84.31
69715;HTU21D;56981;53.532;49.398;2022-10-29T15:11:40;4.61;83.90
69715;HTU21D;56981;53.532;49.398;2022-10-29T15:16:51;4.65;83.98
69715;HTU21D;56981;53.532;49.398;2022-10-29T15:19:17;4.62;83.32
69715;HTU21D;56981;53.532;49.398;2022-10-29T15:21:44;4.59;83.49
69715;HTU21D;56981;53.532;49.398;2022-10-29T15:24:15;4.59;84.16
69715;HTU21D;56981;53.532;49.398;2022-10-29T15:26:46;4.54;83.49
69715;HTU21D;56981;53.532;49.398;2022-10-29T15:29:12;4.56;83.84
69715;HTU21D;56981;53.532;49.398;2022-10-29T15:31:43;4.56;83.55
69715;HTU21D;56981;53.532;49.398;2022-10-29T15:34:27;4.56;83.41
69715;HTU21D;56981;53.532;49.398;2022-10-29T15:36:56;4.53;83.38
69715;HTU21D;56981;53.532;49.398;2022-10-29T15:42:33;4.56;83.65
69715;HTU21D;56981;53.532;49.398;2022-10-29T15:45:21;4.56;83.91
69715;HTU21D;56981;53.532;49.398;2022-10-29T15:48:34;4.49;83.90
69715;HTU21D;56981;53.532;49.398;2022-10-29T15:50:39;4.54;84.10
69715;HTU21D;56981;53.532;49.398;2022-10-29T15:53:14;4.57;83.96
69715;HTU21D;56981;53.532;49.398;2022-10-29T15:55:41;4.63;83.81
69715;HTU21D;56981;53.532;49.398;2022-10-29T15:58:16;4.61;83.68
69715;HTU21D;56981;53.532;49.398;2022-10-29T16:00:42;4.61;83.81
69715;HTU21D;56981;53.532;49.398;2022-10-29T16:03:20;4.62;84.19
69715;HTU21D;56981;53.532;49.398;2022-10-29T16:05:48;4.63;83.84
69715;HTU21D;56981;53.532;49.398;2022-10-29T16:08:25;4.64;83.71
69715;HTU21D;56981;53.532;49.398;2022-10-29T16:10:53;4.64;84.32
69715;HTU21D;56981;53.532;49.398;2022-10-29T16:13:20;4.57;84.19
69715;HTU21D;56981;53.532;49.398;2022-10-29T16:15:47;4.57;83.68
69715;HTU21D;56981;53.532;49.398;2022-10-29T16:18:14;4.54;84.11
69715;HTU21D;56981;53.532;49.398;2022-10-29T16:20:40;4.56;84.02
69715;HTU21D;56981;53.532;49.398;2022-10-29T16:23:10;4.53;84.17
69715;HTU21D;56981;53.532;49.398;2022-10-29T16:25:38;4.53;84.44
69715;HTU21D;56981;53.532;49.398;2022-10-29T16:28:04;4.51;84.71
69715;HTU21D;56981;53.532;49.398;2022-10-29T16:30:31;4.50;84.84
69715;HTU21D;56981;53.532;49.398;2022-10-29T16:32:59;4.52;84.86
69715;HTU21D;56981;53.532;49.398;2022-10-29T16:35:27;4.51;85.23
69715;HTU21D;56981;53.532;49.398;2022-10-29T16:37:54;4.46;85.74
69715;HTU21D;56981;53.532;49.398;2022-10-29T16:40:23;4.42;85.58
69715;HTU21D;56981;53.532;49.398;2022-10-29T16:42:51;4.43;85.63
69715;HTU21D;56981;53.532;49.398;2022-10-29T16:45:20;4.47;85.98
69715;HTU21D;56981;53.532;49.398;2022-10-29T16:47:48;4.50;85.81
69715;HTU21D;56981;53.532;49.398;2022-10-29T16:50:23;4.51;85.62
69715;HTU21D;56981;53.532;49.398;2022-10-29T16:52:56;4.47;85.89
69715;HTU21D;56981;53.532;49.398;2022-10-29T16:55:24;4.47;85.49
69715;HTU21D;56981;53.532;49.398;2022-10-29T16:57:50;4.43;85.54
69715;HTU21D;56981;53.532;49.398;2022-10-29T17:00:16;4.44;85.04
69715;HTU21D;56981;53.532;49.398;2022-10-29T17:02:42;4.42;85.25
69715;HTU21D;56981;53.532;49.398;2022-10-29T17:05:12;4.42;84.89
69715;HTU21D;56981;53.532;49.398;2022-10-29T17:07:38;4.36;85.31
69715;HTU21D;56981;53.532;49.398;2022-10-29T17:10:05;4.33;85.48
69715;HTU21D;56981;53.532;49.398;2022-10-29T17:12:33;4.32;85.54
69715;HTU21D;56981;53.532;49.398;2022-10-29T17:14:59;4.31;85.40
69715;HTU21D;56981;53.532;49.398;2022-10-29T17:17:35;4.24;85.20
69715;HTU21D;56981;53.532;49.398;2022-10-29T17:20:02;4.24;85.40
69715;HTU21D;56981;53.532;49.398;2022-10-29T17:22:28;4.22;85.25
69715;HTU21D;56981;53.532;49.398;2022-10-29T17:24:54;4.21;85.58
69715;HTU21D;56981;53.532;49.398;2022-10-29T17:27:20;4.15;85.42
69715;HTU21D;56981;53.532;49.398;2022-10-29T17:29:47;4.16;85.68
69715;HTU21D;56981;53.532;49.398;2022-10-29T17:32:13;4.14;85.84